createdAt,value
2023-04-15T00:00:01.872Z,6.63
2023-04-15T00:01:01.729Z,6.60
2023-04-15T00:02:01.777Z,6.61
2023-04-15T00:03:01.883Z,6.57
2023-04-15T00:04:01.967Z,6.56
2023-04-15T00:05:01.660Z,6.56
2023-04-15T00:06:01.728Z,6.56
2023-04-15T00:07:01.646Z,6.56
2023-04-15T00:08:01.656Z,6.55
2023-04-15T00:09:01.879Z,6.57
2023-04-15T00:10:01.639Z,6.56
2023-04-15T00:11:01.619Z,6.57
2023-04-15T00:12:01.578Z,6.55
2023-04-15T00:13:01.569Z,6.55
2023-04-15T00:14:01.579Z,6.55
2023-04-15T00:15:01.612Z,6.55
2023-04-15T00:16:01.564Z,6.52
2023-04-15T00:17:01.637Z,6.53
2023-04-15T00:18:01.530Z,6.53
2023-04-15T00:19:01.724Z,6.53
2023-04-15T00:20:01.536Z,6.53
2023-04-15T00:21:01.496Z,6.53
2023-04-15T00:22:01.491Z,6.55
2023-04-15T00:23:01.466Z,6.53
2023-04-15T00:24:01.467Z,6.55
2023-04-15T00:25:01.452Z,6.53
2023-04-15T00:26:01.459Z,6.53
2023-04-15T00:27:01.446Z,6.52
2023-04-15T00:28:01.531Z,6.53
2023-04-15T00:29:01.766Z,6.49
2023-04-15T00:30:01.545Z,6.47
2023-04-15T00:31:01.555Z,6.47
2023-04-15T00:32:01.394Z,6.46
2023-04-15T00:33:01.448Z,6.42
2023-04-15T00:34:01.395Z,6.42
2023-04-15T00:35:01.332Z,6.38
2023-04-15T00:36:01.319Z,6.40
2023-04-15T00:37:01.340Z,6.38
2023-04-15T00:38:01.337Z,6.37
2023-04-15T00:39:01.481Z,6.35
2023-04-15T00:40:01.286Z,6.32
2023-04-15T00:41:01.291Z,6.31
2023-04-15T00:42:01.330Z,6.35
2023-04-15T00:43:01.308Z,6.34
2023-04-15T00:44:01.235Z,6.32
2023-04-15T00:45:01.250Z,6.31
2023-04-15T00:46:01.269Z,6.32
2023-04-15T00:47:01.202Z,6.30
2023-04-15T00:48:01.264Z,6.30
2023-04-15T00:49:01.282Z,6.28
2023-04-15T00:50:01.224Z,6.30
2023-04-15T00:51:01.169Z,6.28
2023-04-15T00:52:01.162Z,6.30
2023-04-15T00:53:01.146Z,6.31
2023-04-15T00:54:01.142Z,6.34
2023-04-15T00:55:01.280Z,6.32
2023-04-15T00:56:01.114Z,6.32
2023-04-15T00:57:01.185Z,6.34
2023-04-15T00:58:01.129Z,6.32
2023-04-15T00:59:01.448Z,6.30
2023-04-15T01:00:01.218Z,6.34
2023-04-15T01:01:01.161Z,6.31
2023-04-15T01:02:01.231Z,6.31
2023-04-15T01:03:01.199Z,6.34
2023-04-15T01:04:01.252Z,6.34
2023-04-15T01:05:01.050Z,6.37
2023-04-15T01:06:03.689Z,6.38
2023-04-15T01:07:01.004Z,6.42
2023-04-15T01:08:00.984Z,6.43
2023-04-15T01:09:01.179Z,6.43
2023-04-15T01:10:00.967Z,6.43
2023-04-15T01:11:00.976Z,6.42
2023-04-15T01:12:00.936Z,6.40
2023-04-15T01:13:00.929Z,6.42
2023-04-15T01:14:00.962Z,6.40
2023-04-15T01:15:00.947Z,6.42
2023-04-15T01:16:00.979Z,6.40
2023-04-15T01:17:00.977Z,6.38
2023-04-15T01:18:00.976Z,6.38
2023-04-15T01:19:01.052Z,6.34
2023-04-15T01:20:00.911Z,6.34
2023-04-15T01:21:00.844Z,6.30
2023-04-15T01:22:00.832Z,6.31
2023-04-15T01:23:00.814Z,6.30
2023-04-15T01:24:00.823Z,6.30
2023-04-15T01:25:00.810Z,6.28
2023-04-15T01:26:00.804Z,6.28
2023-04-15T01:27:00.787Z,6.28
2023-04-15T01:28:00.757Z,6.27
2023-04-15T01:29:01.083Z,6.25
2023-04-15T01:30:00.798Z,6.24
2023-04-15T01:31:00.751Z,6.19
2023-04-15T01:32:00.738Z,6.18
2023-04-15T01:33:00.845Z,6.18
2023-04-15T01:34:00.716Z,6.18
2023-04-15T01:35:00.770Z,6.16
2023-04-15T01:36:00.709Z,6.13
2023-04-15T01:37:00.697Z,6.12
2023-04-15T01:38:00.663Z,6.09
2023-04-15T01:39:00.888Z,6.06
2023-04-15T01:40:00.654Z,6.03
2023-04-15T01:41:00.646Z,6.03
2023-04-15T01:42:00.628Z,6.02
2023-04-15T01:43:00.606Z,6.02
2023-04-15T01:44:00.603Z,5.98
2023-04-15T01:45:00.601Z,5.95
2023-04-15T01:46:00.653Z,5.95
2023-04-15T01:47:00.627Z,5.94
2023-04-15T01:48:00.659Z,5.93
2023-04-15T01:49:00.707Z,5.88
2023-04-15T01:50:00.708Z,5.87
2023-04-15T01:51:00.560Z,5.85
2023-04-15T01:52:00.540Z,5.84
2023-04-15T01:53:00.509Z,5.82
2023-04-15T01:54:00.529Z,5.79
2023-04-15T01:55:00.890Z,5.79
2023-04-15T01:56:00.554Z,5.80
2023-04-15T01:57:00.494Z,5.79
2023-04-15T01:58:00.461Z,5.79
2023-04-15T01:59:00.634Z,5.79
2023-04-15T02:00:00.868Z,5.80
2023-04-15T02:01:00.570Z,5.82
2023-04-15T02:02:00.496Z,5.80
2023-04-15T02:03:00.481Z,5.79
2023-04-15T02:04:00.464Z,5.80
2023-04-15T02:05:00.391Z,5.77
2023-04-15T02:06:00.505Z,5.75
2023-04-15T02:07:00.402Z,5.73
2023-04-15T02:08:00.408Z,5.70
2023-04-15T02:09:00.716Z,5.72
2023-04-15T02:10:00.395Z,5.70
2023-04-15T02:11:00.333Z,5.69
2023-04-15T02:12:00.368Z,5.66
2023-04-15T02:13:00.368Z,5.65
2023-04-15T02:14:00.361Z,5.62
2023-04-15T02:15:00.290Z,5.62
2023-04-15T02:16:00.296Z,5.61
2023-04-15T02:17:00.461Z,5.58
2023-04-15T02:18:00.328Z,5.55
2023-04-15T02:19:00.549Z,5.51
2023-04-15T02:20:00.288Z,5.48
2023-04-15T02:21:00.231Z,5.44
2023-04-15T02:22:00.265Z,5.47
2023-04-15T02:23:00.293Z,5.48
2023-04-15T02:24:00.283Z,5.48
2023-04-15T02:25:00.264Z,5.44
2023-04-15T02:26:00.216Z,5.43
2023-04-15T02:27:00.305Z,5.39
2023-04-15T02:28:00.202Z,5.36
2023-04-15T02:29:00.462Z,5.33
2023-04-15T02:30:00.326Z,5.29
2023-04-15T02:31:00.334Z,5.27
2023-04-15T02:32:00.255Z,5.29
2023-04-15T02:33:00.174Z,5.29
2023-04-15T02:34:00.152Z,5.27
2023-04-15T02:35:00.162Z,5.27
2023-04-15T02:36:00.124Z,5.32
2023-04-15T02:37:00.208Z,5.32
2023-04-15T02:38:00.122Z,5.36
2023-04-15T02:39:00.402Z,5.41
2023-04-15T02:40:00.169Z,5.41
2023-04-15T02:41:00.139Z,5.41
2023-04-15T02:42:00.210Z,5.44
2023-04-15T02:43:00.190Z,5.44
2023-04-15T02:44:00.144Z,5.44
2023-04-15T02:44:59.975Z,5.44
2023-04-15T02:46:00.034Z,5.44
2023-04-15T02:46:59.986Z,5.40
2023-04-15T02:48:00.234Z,5.39
2023-04-15T02:49:00.576Z,5.39
2023-04-15T02:49:59.939Z,5.39
2023-04-15T02:50:59.968Z,5.36
2023-04-15T02:51:59.912Z,5.33
2023-04-15T02:52:59.925Z,5.33
2023-04-15T02:54:00.285Z,5.33
2023-04-15T02:54:59.874Z,5.33
2023-04-15T02:55:59.901Z,5.33
2023-04-15T02:56:59.920Z,5.32
2023-04-15T02:57:59.835Z,5.30
2023-04-15T02:59:00.137Z,5.32
2023-04-15T02:59:59.865Z,5.32
2023-04-15T03:00:59.819Z,5.30
2023-04-15T03:01:59.878Z,5.32
2023-04-15T03:02:59.948Z,5.32
2023-04-15T03:03:59.863Z,5.30
2023-04-15T03:04:59.754Z,5.30
2023-04-15T03:05:59.811Z,5.30
2023-04-15T03:06:59.723Z,5.29
2023-04-15T03:07:59.734Z,5.30
2023-04-15T03:08:59.869Z,5.30
2023-04-15T03:09:59.732Z,5.33
2023-04-15T03:10:59.696Z,5.34
2023-04-15T03:11:59.689Z,5.32
2023-04-15T03:12:59.669Z,5.32
2023-04-15T03:13:59.695Z,5.30
2023-04-15T03:14:59.657Z,5.32
2023-04-15T03:15:59.686Z,5.32
2023-04-15T03:16:59.700Z,5.32
2023-04-15T03:17:59.707Z,5.32
2023-04-15T03:18:59.902Z,5.32
2023-04-15T03:19:59.645Z,5.32
2023-04-15T03:20:59.577Z,5.33
2023-04-15T03:21:59.603Z,5.32
2023-04-15T03:22:59.569Z,5.30
2023-04-15T03:23:59.560Z,5.27
2023-04-15T03:24:59.555Z,5.29
2023-04-15T03:25:59.553Z,5.29
2023-04-15T03:26:59.538Z,5.24
2023-04-15T03:27:59.527Z,5.22
2023-04-15T03:28:59.756Z,5.22
2023-04-15T03:29:59.527Z,5.18
2023-04-15T03:30:59.526Z,5.15
2023-04-15T03:31:59.493Z,5.14
2023-04-15T03:32:59.499Z,5.14
2023-04-15T03:33:59.453Z,5.12
2023-04-15T03:34:59.434Z,5.12
2023-04-15T03:35:59.461Z,5.11
2023-04-15T03:36:59.426Z,5.11
2023-04-15T03:37:59.422Z,5.11
2023-04-15T03:38:59.667Z,5.09
2023-04-15T03:39:59.435Z,5.11
2023-04-15T03:40:59.382Z,5.09
2023-04-15T03:41:59.372Z,5.06
2023-04-15T03:42:59.425Z,5.06
2023-04-15T03:43:59.364Z,5.04
2023-04-15T03:44:59.364Z,5.03
2023-04-15T03:46:01.415Z,5.01
2023-04-15T03:46:59.303Z,5.00
2023-04-15T03:48:11.507Z,5.03
2023-04-15T03:48:59.404Z,5.01
2023-04-15T03:49:59.288Z,5.00
2023-04-15T03:50:59.275Z,4.98
2023-04-15T03:51:59.298Z,4.97
2023-04-15T03:52:59.278Z,4.96
2023-04-15T03:53:59.255Z,4.94
2023-04-15T03:54:59.245Z,4.94
2023-04-15T03:55:59.224Z,4.96
2023-04-15T03:56:59.281Z,4.97
2023-04-15T03:57:59.241Z,4.98
2023-04-15T03:58:59.340Z,4.98
2023-04-15T03:59:59.209Z,4.97
2023-04-15T04:00:59.258Z,5.00
2023-04-15T04:01:59.380Z,4.98
2023-04-15T04:02:59.309Z,4.97
2023-04-15T04:03:59.301Z,4.98
2023-04-15T04:04:59.154Z,4.98
2023-04-15T04:05:59.198Z,4.98
2023-04-15T04:06:59.069Z,4.96
2023-04-15T04:07:59.065Z,4.94
2023-04-15T04:08:59.164Z,4.96
2023-04-15T04:09:59.025Z,5.00
2023-04-15T04:10:59.056Z,5.01
2023-04-15T04:11:59.006Z,5.00
2023-04-15T04:12:59.013Z,4.98
2023-04-15T04:13:58.993Z,5.00
2023-04-15T04:14:59.073Z,5.06
2023-04-15T04:15:59.113Z,5.03
2023-04-15T04:16:59.126Z,5.03
2023-04-15T04:17:58.988Z,5.03
2023-04-15T04:18:59.123Z,5.06
2023-04-15T04:19:58.973Z,5.07
2023-04-15T04:20:58.920Z,5.11
2023-04-15T04:21:58.910Z,5.11
2023-04-15T04:22:58.888Z,5.11
2023-04-15T04:23:58.896Z,5.11
2023-04-15T04:24:58.959Z,5.06
2023-04-15T04:25:59.036Z,5.06
2023-04-15T04:26:58.913Z,5.07
2023-04-15T04:27:58.836Z,5.07
2023-04-15T04:28:58.988Z,5.09
2023-04-15T04:29:58.854Z,5.11
2023-04-15T04:30:58.813Z,5.12
2023-04-15T04:31:58.825Z,5.11
2023-04-15T04:32:58.858Z,5.07
2023-04-15T04:33:58.769Z,5.07
2023-04-15T04:34:58.795Z,5.09
2023-04-15T04:35:58.752Z,5.09
2023-04-15T04:36:58.765Z,5.09
2023-04-15T04:37:58.734Z,5.09
2023-04-15T04:38:58.782Z,5.09
2023-04-15T04:39:58.719Z,5.09
2023-04-15T04:40:58.705Z,5.09
2023-04-15T04:41:58.703Z,5.09
2023-04-15T04:42:58.679Z,5.11
2023-04-15T04:43:58.662Z,5.07
2023-04-15T04:44:58.661Z,5.06
2023-04-15T04:45:58.705Z,5.06
2023-04-15T04:46:58.674Z,5.04
2023-04-15T04:47:58.680Z,5.04
2023-04-15T04:48:58.642Z,5.04
2023-04-15T04:49:58.599Z,5.04
2023-04-15T04:50:58.590Z,5.01
2023-04-15T04:51:58.615Z,5.00
2023-04-15T04:52:58.558Z,5.01
2023-04-15T04:53:58.566Z,5.00
2023-04-15T04:54:58.542Z,5.03
2023-04-15T04:55:58.553Z,5.01
2023-04-15T04:56:58.525Z,5.01
2023-04-15T04:57:58.562Z,4.98
2023-04-15T04:58:58.573Z,4.98
2023-04-15T04:59:58.487Z,4.97
2023-04-15T05:00:58.573Z,4.96
2023-04-15T05:01:58.603Z,4.94
2023-04-15T05:02:58.593Z,4.94
2023-04-15T05:03:59.191Z,4.96
2023-04-15T05:04:58.445Z,4.97
2023-04-15T05:05:58.552Z,4.98
2023-04-15T05:06:58.431Z,5.00
2023-04-15T05:07:58.399Z,5.03
2023-04-15T05:08:58.422Z,5.01
2023-04-15T05:09:58.439Z,5.01
2023-04-15T05:10:58.384Z,5.01
2023-04-15T05:11:58.487Z,5.03
2023-04-15T05:12:58.356Z,5.03
2023-04-15T05:13:58.388Z,5.04
2023-04-15T05:14:58.361Z,5.03
2023-04-15T05:15:58.436Z,5.03
2023-04-15T05:16:58.356Z,5.01
2023-04-15T05:17:58.345Z,5.01
2023-04-15T05:18:58.325Z,5.01
2023-04-15T05:19:58.282Z,5.01
2023-04-15T05:20:58.284Z,5.00
2023-04-15T05:21:58.287Z,4.98
2023-04-15T05:22:58.292Z,5.00
2023-04-15T05:23:58.240Z,5.00
2023-04-15T05:24:58.244Z,4.98
2023-04-15T05:25:58.261Z,4.98
2023-04-15T05:26:58.226Z,4.97
2023-04-15T05:27:58.196Z,4.98
2023-04-15T05:28:58.281Z,4.98
2023-04-15T05:29:58.168Z,5.00
2023-04-15T05:30:58.251Z,5.01
2023-04-15T05:31:58.159Z,5.01
2023-04-15T05:32:58.197Z,5.03
2023-04-15T05:33:58.150Z,5.04
2023-04-15T05:34:58.140Z,5.03
2023-04-15T05:35:58.122Z,5.03
2023-04-15T05:36:58.162Z,5.06
2023-04-15T05:37:58.113Z,5.04
2023-04-15T05:38:58.131Z,5.07
2023-04-15T05:39:58.148Z,5.12
2023-04-15T05:40:58.224Z,5.15
2023-04-15T05:41:58.173Z,5.19
2023-04-15T05:42:58.103Z,5.21
2023-04-15T05:43:58.035Z,5.25
2023-04-15T05:44:58.028Z,5.27
2023-04-15T05:45:58.189Z,5.33
2023-04-15T05:46:58.021Z,5.32
2023-04-15T05:47:58.038Z,5.37
2023-04-15T05:48:58.065Z,5.37
2023-04-15T05:49:58.028Z,5.41
2023-04-15T05:50:57.978Z,5.43
2023-04-15T05:51:57.948Z,5.47
2023-04-15T05:52:57.940Z,5.51
2023-04-15T05:53:57.947Z,5.54
2023-04-15T05:54:57.993Z,5.58
2023-04-15T05:55:57.895Z,5.61
2023-04-15T05:56:57.909Z,5.61
2023-04-15T05:57:57.889Z,5.66
2023-04-15T05:58:57.999Z,5.69
2023-04-15T05:59:57.875Z,5.73
2023-04-15T06:00:57.867Z,5.75
2023-04-15T06:01:57.870Z,5.79
2023-04-15T06:02:57.919Z,5.84
2023-04-15T06:03:57.995Z,5.85
2023-04-15T06:04:57.911Z,5.90
2023-04-15T06:05:57.814Z,5.94
2023-04-15T06:06:57.836Z,6.00
2023-04-15T06:07:57.791Z,6.02
2023-04-15T06:08:57.767Z,6.03
2023-04-15T06:09:58.039Z,6.09
2023-04-15T06:10:57.794Z,6.11
2023-04-15T06:11:57.749Z,6.13
2023-04-15T06:12:57.746Z,6.18
2023-04-15T06:13:57.714Z,6.24
2023-04-15T06:14:59.933Z,6.25
2023-04-15T06:15:57.713Z,6.30
2023-04-15T06:16:57.704Z,6.31
2023-04-15T06:17:57.719Z,6.37
2023-04-15T06:18:57.709Z,6.42
2023-04-15T06:19:57.692Z,6.47
2023-04-15T06:20:57.804Z,6.53
2023-04-15T06:21:57.636Z,6.57
2023-04-15T06:22:57.665Z,6.64
2023-04-15T06:23:57.674Z,6.64
2023-04-15T06:24:57.717Z,6.67
2023-04-15T06:25:57.597Z,6.71
2023-04-15T06:26:57.609Z,6.73
2023-04-15T06:27:57.567Z,6.79
2023-04-15T06:28:57.590Z,6.82
2023-04-15T06:29:57.590Z,6.82
2023-04-15T06:30:57.571Z,6.86
2023-04-15T06:31:57.632Z,6.89
2023-04-15T06:32:57.584Z,6.91
2023-04-15T06:33:57.531Z,6.93
2023-04-15T06:34:57.531Z,6.96
2023-04-15T06:35:57.611Z,6.96
2023-04-15T06:36:57.509Z,7.00
2023-04-15T06:37:57.520Z,7.04
2023-04-15T06:38:57.496Z,7.03
2023-04-15T06:39:57.491Z,7.07
2023-04-15T06:40:57.480Z,7.10
2023-04-15T06:41:57.440Z,7.13
2023-04-15T06:42:57.420Z,7.19
2023-04-15T06:43:57.481Z,7.25
2023-04-15T06:44:57.426Z,7.18
2023-04-15T06:45:57.537Z,7.22
2023-04-15T06:46:57.441Z,7.31
2023-04-15T06:47:57.379Z,7.33
2023-04-15T06:48:57.396Z,7.40
2023-04-15T06:49:57.353Z,7.37
2023-04-15T06:50:57.423Z,7.43
2023-04-15T06:51:57.345Z,7.42
2023-04-15T06:52:57.375Z,7.40
2023-04-15T06:53:57.344Z,7.42
2023-04-15T06:54:57.909Z,7.46
2023-04-15T06:55:57.337Z,7.46
2023-04-15T06:56:57.357Z,7.49
2023-04-15T06:57:57.260Z,7.57
2023-04-15T06:58:57.250Z,7.52
2023-04-15T06:59:57.225Z,7.55
2023-04-15T07:00:57.234Z,7.60
2023-04-15T07:01:57.238Z,7.64
2023-04-15T07:02:57.274Z,7.66
2023-04-15T07:03:57.187Z,7.73
2023-04-15T07:04:57.181Z,7.76
2023-04-15T07:05:57.162Z,7.81
2023-04-15T07:06:57.182Z,7.86
2023-04-15T07:07:57.146Z,7.77
2023-04-15T07:08:57.137Z,7.73
2023-04-15T07:09:57.125Z,7.77
2023-04-15T07:10:57.145Z,7.78
2023-04-15T07:11:57.165Z,7.83
2023-04-15T07:12:57.374Z,7.83
2023-04-15T07:13:57.136Z,7.84
2023-04-15T07:14:57.112Z,7.84
2023-04-15T07:15:57.190Z,7.91
2023-04-15T07:16:57.153Z,7.96
2023-04-15T07:17:57.201Z,8.01
2023-04-15T07:18:57.020Z,8.09
2023-04-15T07:19:57.106Z,8.10
2023-04-15T07:20:57.043Z,8.10
2023-04-15T07:21:56.988Z,8.06
2023-04-15T07:22:57.029Z,8.06
2023-04-15T07:23:56.982Z,8.13
2023-04-15T07:24:56.962Z,8.16
2023-04-15T07:25:56.959Z,8.17
2023-04-15T07:26:58.535Z,8.12
2023-04-15T07:27:56.921Z,7.95
2023-04-15T07:28:56.955Z,7.94
2023-04-15T07:29:56.924Z,7.96
2023-04-15T07:30:56.915Z,8.02
2023-04-15T07:31:56.888Z,8.12
2023-04-15T07:32:56.949Z,8.14
2023-04-15T07:33:56.859Z,8.20
2023-04-15T07:34:56.856Z,8.23
2023-04-15T07:35:57.062Z,8.34
2023-04-15T07:36:56.865Z,8.38
2023-04-15T07:37:56.841Z,8.42
2023-04-15T07:38:56.843Z,8.46
2023-04-15T07:39:56.879Z,8.52
2023-04-15T07:40:56.781Z,8.38
2023-04-15T07:41:56.788Z,8.44
2023-04-15T07:42:56.790Z,8.46
2023-04-15T07:43:56.747Z,8.46
2023-04-15T07:44:56.766Z,8.55
2023-04-15T07:45:56.747Z,8.56
2023-04-15T07:46:56.835Z,8.67
2023-04-15T07:47:57.786Z,8.77
2023-04-15T07:48:56.708Z,8.81
2023-04-15T07:49:56.700Z,8.80
2023-04-15T07:50:56.697Z,8.81
2023-04-15T07:51:56.768Z,8.85
2023-04-15T07:52:56.733Z,8.85
2023-04-15T07:53:56.987Z,8.90
2023-04-15T07:54:56.646Z,8.98
2023-04-15T07:55:56.640Z,9.03
2023-04-15T07:56:56.709Z,9.14
2023-04-15T07:57:56.659Z,9.22
2023-04-15T07:58:56.623Z,9.33
2023-04-15T07:59:56.635Z,9.42
2023-04-15T08:00:56.593Z,9.27
2023-04-15T08:01:56.583Z,9.19
2023-04-15T08:02:56.680Z,9.18
2023-04-15T08:03:56.753Z,9.03
2023-04-15T08:04:56.639Z,9.09
2023-04-15T08:05:56.613Z,9.11
2023-04-15T08:06:56.780Z,9.04
2023-04-15T08:07:56.600Z,9.14
2023-04-15T08:08:56.745Z,9.11
2023-04-15T08:09:56.634Z,9.04
2023-04-15T08:10:56.742Z,8.96
2023-04-15T08:11:56.755Z,8.95
2023-04-15T08:12:56.563Z,8.96
2023-04-15T08:13:56.906Z,8.93
2023-04-15T08:14:56.815Z,8.89
2023-04-15T08:15:56.463Z,8.85
2023-04-15T08:16:56.400Z,8.89
2023-04-15T08:17:56.425Z,8.85
2023-04-15T08:18:56.399Z,8.89
2023-04-15T08:19:56.371Z,8.74
2023-04-15T08:20:56.389Z,8.71
2023-04-15T08:21:56.345Z,8.70
2023-04-15T08:22:56.379Z,8.67
2023-04-15T08:23:56.436Z,8.67
2023-04-15T08:24:56.606Z,8.68
2023-04-15T08:25:56.338Z,8.71
2023-04-15T08:26:56.331Z,8.74
2023-04-15T08:27:56.307Z,8.75
2023-04-15T08:28:56.473Z,8.81
2023-04-15T08:29:56.254Z,8.70
2023-04-15T08:30:56.260Z,8.63
2023-04-15T08:31:56.325Z,8.57
2023-04-15T08:32:56.277Z,8.65
2023-04-15T08:33:56.247Z,8.72
2023-04-15T08:34:56.229Z,8.77
2023-04-15T08:35:56.190Z,8.77
2023-04-15T08:36:56.212Z,8.88
2023-04-15T08:37:56.165Z,8.96
2023-04-15T08:38:56.260Z,8.95
2023-04-15T08:39:56.228Z,8.96
2023-04-15T08:40:56.340Z,8.98
2023-04-15T08:41:56.224Z,9.06
2023-04-15T08:42:56.181Z,9.14
2023-04-15T08:43:56.137Z,9.11
2023-04-15T08:44:56.132Z,9.15
2023-04-15T08:45:56.089Z,9.14
2023-04-15T08:46:56.167Z,9.14
2023-04-15T08:47:56.300Z,9.16
2023-04-15T08:48:56.163Z,9.23
2023-04-15T08:49:56.169Z,9.23
2023-04-15T08:50:56.180Z,9.19
2023-04-15T08:51:56.023Z,9.12
2023-04-15T08:52:56.059Z,9.12
2023-04-15T08:53:56.024Z,9.22
2023-04-15T08:54:56.047Z,9.32
2023-04-15T08:55:55.977Z,9.36
2023-04-15T08:56:56.033Z,9.33
2023-04-15T08:57:55.972Z,9.29
2023-04-15T08:58:56.015Z,9.32
2023-04-15T08:59:55.971Z,9.36
2023-04-15T09:00:55.993Z,9.36
2023-04-15T09:01:55.940Z,9.34
2023-04-15T09:02:56.006Z,9.24
2023-04-15T09:03:56.069Z,9.29
2023-04-15T09:04:55.910Z,9.37
2023-04-15T09:05:55.928Z,9.30
2023-04-15T09:06:55.888Z,9.29
2023-04-15T09:07:55.899Z,9.27
2023-04-15T09:08:55.855Z,9.26
2023-04-15T09:09:55.861Z,9.29
2023-04-15T09:10:55.846Z,9.32
2023-04-15T09:11:55.823Z,9.30
2023-04-15T09:12:55.801Z,9.37
2023-04-15T09:13:55.822Z,9.42
2023-04-15T09:14:55.825Z,9.37
2023-04-15T09:15:55.785Z,9.36
2023-04-15T09:16:55.775Z,9.41
2023-04-15T09:17:55.772Z,9.32
2023-04-15T09:18:55.768Z,9.34
2023-04-15T09:19:55.728Z,9.36
2023-04-15T09:20:55.728Z,9.44
2023-04-15T09:21:58.452Z,9.41
2023-04-15T09:22:56.368Z,9.41
2023-04-15T09:23:55.705Z,9.47
2023-04-15T09:24:55.686Z,9.59
2023-04-15T09:25:55.689Z,9.75
2023-04-15T09:26:55.645Z,9.91
2023-04-15T09:27:55.656Z,9.90
2023-04-15T09:28:55.687Z,9.94
2023-04-15T09:29:55.936Z,9.90
2023-04-15T09:30:55.629Z,9.96
2023-04-15T09:31:55.622Z,10.03
2023-04-15T09:32:55.667Z,10.12
2023-04-15T09:33:55.594Z,10.27
2023-04-15T09:34:55.561Z,10.18
2023-04-15T09:35:55.594Z,10.12
2023-04-15T09:36:55.574Z,10.18
2023-04-15T09:37:55.551Z,10.16
2023-04-15T09:38:55.546Z,10.14
2023-04-15T09:39:55.529Z,10.03
2023-04-15T09:40:55.512Z,10.09
2023-04-15T09:41:55.542Z,10.10
2023-04-15T09:42:55.543Z,10.08
2023-04-15T09:43:55.579Z,10.03
2023-04-15T09:44:55.611Z,9.99
2023-04-15T09:45:55.562Z,9.96
2023-04-15T09:46:55.471Z,9.87
2023-04-15T09:47:56.945Z,9.98
2023-04-15T09:48:55.491Z,10.01
2023-04-15T09:49:55.517Z,10.08
2023-04-15T09:50:55.474Z,10.06
2023-04-15T09:52:05.094Z,10.06
2023-04-15T09:52:55.381Z,10.02
2023-04-15T09:53:55.362Z,9.96
2023-04-15T09:54:55.350Z,9.93
2023-04-15T09:55:55.365Z,9.94
2023-04-15T09:56:55.338Z,10.05
2023-04-15T09:57:55.321Z,10.12
2023-04-15T09:58:55.330Z,10.16
2023-04-15T09:59:55.308Z,10.18
2023-04-15T10:00:55.299Z,10.27
2023-04-15T10:01:55.476Z,10.36
2023-04-15T10:02:55.594Z,10.42
2023-04-15T10:03:55.474Z,10.38
2023-04-15T10:04:55.246Z,10.39
2023-04-15T10:05:55.274Z,10.41
2023-04-15T10:06:55.230Z,10.42
2023-04-15T10:07:55.318Z,10.43
2023-04-15T10:08:55.230Z,10.41
2023-04-15T10:09:55.218Z,10.36
2023-04-15T10:10:55.214Z,10.16
2023-04-15T10:11:55.254Z,10.05
2023-04-15T10:12:55.161Z,10.08
2023-04-15T10:13:55.192Z,10.14
2023-04-15T10:14:55.121Z,10.10
2023-04-15T10:15:55.273Z,10.09
2023-04-15T10:16:55.135Z,10.01
2023-04-15T10:17:55.159Z,9.98
2023-04-15T10:18:55.137Z,9.94
2023-04-15T10:19:55.128Z,9.90
2023-04-15T10:20:55.074Z,9.85
2023-04-15T10:21:55.092Z,9.83
2023-04-15T10:22:55.041Z,9.83
2023-04-15T10:23:55.055Z,9.85
2023-04-15T10:24:55.049Z,9.85
2023-04-15T10:25:55.022Z,9.80
2023-04-15T10:26:55.028Z,9.80
2023-04-15T10:27:55.051Z,9.78
2023-04-15T10:28:54.989Z,9.85
2023-04-15T10:29:54.980Z,9.91
2023-04-15T10:30:55.021Z,9.91
2023-04-15T10:31:55.022Z,9.96
2023-04-15T10:32:54.998Z,9.98
2023-04-15T10:33:54.951Z,10.01
2023-04-15T10:34:54.979Z,10.01
2023-04-15T10:35:54.929Z,10.01
2023-04-15T10:36:54.964Z,10.02
2023-04-15T10:37:54.882Z,9.99
2023-04-15T10:38:54.939Z,10.02
2023-04-15T10:39:54.882Z,9.99
2023-04-15T10:40:54.851Z,10.03
2023-04-15T10:41:54.876Z,10.05
2023-04-15T10:42:54.830Z,10.08
2023-04-15T10:43:54.914Z,10.10
2023-04-15T10:44:54.875Z,10.12
2023-04-15T10:45:54.812Z,10.05
2023-04-15T10:46:54.834Z,10.05
2023-04-15T10:47:54.866Z,10.09
2023-04-15T10:48:54.779Z,10.09
2023-04-15T10:49:54.809Z,10.18
2023-04-15T10:50:54.739Z,10.21
2023-04-15T10:51:54.768Z,10.26
2023-04-15T10:52:54.765Z,10.23
2023-04-15T10:53:54.712Z,10.27
2023-04-15T10:54:54.713Z,10.28
2023-04-15T10:55:54.692Z,10.31
2023-04-15T10:56:54.684Z,10.39
2023-04-15T10:57:54.713Z,10.35
2023-04-15T10:58:54.657Z,10.38
2023-04-15T10:59:54.674Z,10.35
2023-04-15T11:00:54.706Z,10.35
2023-04-15T11:01:54.823Z,10.34
2023-04-15T11:02:54.789Z,10.35
2023-04-15T11:03:54.712Z,10.24
2023-04-15T11:04:54.661Z,10.23
2023-04-15T11:05:54.603Z,10.24
2023-04-15T11:06:54.572Z,10.31
2023-04-15T11:07:54.610Z,10.41
2023-04-15T11:08:54.561Z,10.45
2023-04-15T11:09:54.771Z,10.55
2023-04-15T11:10:54.532Z,10.64
2023-04-15T11:11:54.759Z,10.55
2023-04-15T11:12:54.524Z,10.48
2023-04-15T11:13:54.540Z,10.54
2023-04-15T11:14:54.491Z,10.57
2023-04-15T11:15:54.530Z,10.64
2023-04-15T11:16:54.497Z,10.73
2023-04-15T11:17:54.508Z,10.80
2023-04-15T11:18:54.442Z,10.90
2023-04-15T11:19:54.437Z,10.86
2023-04-15T11:20:54.416Z,10.85
2023-04-15T11:21:54.429Z,10.85
2023-04-15T11:22:55.013Z,10.90
2023-04-15T11:23:54.398Z,10.95
2023-04-15T11:24:54.428Z,10.91
2023-04-15T11:25:54.363Z,10.91
2023-04-15T11:26:54.346Z,10.97
2023-04-15T11:27:54.369Z,10.91
2023-04-15T11:28:54.328Z,10.93
2023-04-15T11:29:54.331Z,10.83
2023-04-15T11:30:54.402Z,10.86
2023-04-15T11:31:54.344Z,10.83
2023-04-15T11:32:54.313Z,10.83
2023-04-15T11:33:54.354Z,10.90
2023-04-15T11:34:54.275Z,10.90
2023-04-15T11:35:54.289Z,10.93
2023-04-15T11:36:54.380Z,11.03
2023-04-15T11:37:54.240Z,10.97
2023-04-15T11:38:54.241Z,10.87
2023-04-15T11:39:54.233Z,10.83
2023-04-15T11:40:54.217Z,10.86
2023-04-15T11:41:54.207Z,10.91
2023-04-15T11:42:54.183Z,10.86
2023-04-15T11:43:54.244Z,10.83
2023-04-15T11:44:54.169Z,10.86
2023-04-15T11:45:54.210Z,10.73
2023-04-15T11:46:54.157Z,10.73
2023-04-15T11:47:54.197Z,10.72
2023-04-15T11:48:54.191Z,10.86
2023-04-15T11:49:54.123Z,10.95
2023-04-15T11:50:54.100Z,11.08
2023-04-15T11:51:54.101Z,11.09
2023-04-15T11:52:54.083Z,11.08
2023-04-15T11:53:54.089Z,11.18
2023-04-15T11:54:54.058Z,11.13
2023-04-15T11:55:54.064Z,11.05
2023-04-15T11:56:54.043Z,11.12
2023-04-15T11:57:54.033Z,11.11
2023-04-15T11:58:54.216Z,11.18
2023-04-15T11:59:54.036Z,11.27
2023-04-15T12:00:54.023Z,11.37
2023-04-15T12:01:54.185Z,11.38
2023-04-15T12:02:54.103Z,11.40
2023-04-15T12:03:54.113Z,11.28
2023-04-15T12:04:54.152Z,11.25
2023-04-15T12:05:53.980Z,11.23
2023-04-15T12:06:53.931Z,11.20
2023-04-15T12:07:53.942Z,10.98
2023-04-15T12:08:53.897Z,11.00
2023-04-15T12:09:53.977Z,10.93
2023-04-15T12:10:53.907Z,10.87
2023-04-15T12:11:54.120Z,10.87
2023-04-15T12:12:53.874Z,10.87
2023-04-15T12:13:53.888Z,10.95
2023-04-15T12:14:53.839Z,10.97
2023-04-15T12:15:53.883Z,11.00
2023-04-15T12:16:53.944Z,11.09
2023-04-15T12:17:53.852Z,11.19
2023-04-15T12:18:53.804Z,11.23
2023-04-15T12:19:53.792Z,11.31
2023-04-15T12:20:53.782Z,11.22
2023-04-15T12:21:53.803Z,11.19
2023-04-15T12:22:53.758Z,11.18
2023-04-15T12:23:53.828Z,11.19
2023-04-15T12:24:53.744Z,11.23
2023-04-15T12:25:53.790Z,11.12
2023-04-15T12:26:53.769Z,11.11
2023-04-15T12:27:53.719Z,11.09
2023-04-15T12:28:53.692Z,11.19
2023-04-15T12:29:53.769Z,11.22
2023-04-15T12:30:53.750Z,11.27
2023-04-15T12:31:53.685Z,11.27
2023-04-15T12:32:53.674Z,11.36
2023-04-15T12:33:53.639Z,11.33
2023-04-15T12:34:53.675Z,11.34
2023-04-15T12:35:53.682Z,11.36
2023-04-15T12:36:53.614Z,11.30
2023-04-15T12:37:53.623Z,11.13
2023-04-15T12:38:53.603Z,11.12
2023-04-15T12:39:53.612Z,11.11
2023-04-15T12:40:53.572Z,11.12
2023-04-15T12:41:53.595Z,11.12
2023-04-15T12:42:53.580Z,11.04
2023-04-15T12:43:53.596Z,11.00
2023-04-15T12:44:53.594Z,10.98
2023-04-15T12:45:53.610Z,11.00
2023-04-15T12:46:53.734Z,10.94
2023-04-15T12:47:53.553Z,10.93
2023-04-15T12:48:53.511Z,10.83
2023-04-15T12:49:53.508Z,10.79
2023-04-15T12:50:53.474Z,10.75
2023-04-15T12:51:53.539Z,10.73
2023-04-15T12:52:53.453Z,10.72
2023-04-15T12:53:53.497Z,10.70
2023-04-15T12:54:53.431Z,10.68
2023-04-15T12:55:53.431Z,10.70
2023-04-15T12:56:53.476Z,10.62
2023-04-15T12:57:53.410Z,10.61
2023-04-15T12:58:53.367Z,10.45
2023-04-15T12:59:53.702Z,10.41
2023-04-15T13:00:53.369Z,10.41
2023-04-15T13:01:53.641Z,10.42
2023-04-15T13:02:53.370Z,10.42
2023-04-15T13:03:53.414Z,10.36
2023-04-15T13:04:53.391Z,10.30
2023-04-15T13:05:53.322Z,10.23
2023-04-15T13:06:53.294Z,10.21
2023-04-15T13:07:53.309Z,10.26
2023-04-15T13:08:58.199Z,10.31
2023-04-15T13:09:53.332Z,10.31
2023-04-15T13:10:53.266Z,10.34